sensor_id;sensor_type;location;lat;lon;timestamp;pressure;altitude;pressure_sealevel;temperature;humidity
62978;BME280;49073;42.352;23.808;2023-07-31T00:02:03;94331.63;;;22.05;67.08
62978;BME280;49073;42.352;23.808;2023-07-31T00:05:04;94339.13;;;22.14;66.71
62978;BME280;49073;42.352;23.808;2023-07-31T00:08:05;94343.91;;;22.23;66.46
62978;BME280;49073;42.352;23.808;2023-07-31T00:11:05;94351.59;;;22.24;66.66
62978;BME280;49073;42.352;23.808;2023-07-31T00:14:06;94358.09;;;22.27;65.82
62978;BME280;49073;42.352;23.808;2023-07-31T00:17:06;94368.34;;;22.10;68.50
62978;BME280;49073;42.352;23.808;2023-07-31T00:20:07;94389.09;;;21.35;77.17
62978;BME280;49073;42.352;23.808;2023-07-31T00:23:08;94409.41;;;20.85;85.63
62978;BME280;49073;42.352;23.808;2023-07-31T00:26:09;94420.84;;;20.59;88.26
62978;BME280;49073;42.352;23.808;2023-07-31T00:29:09;94428.13;;;20.29;90.58
62978;BME280;49073;42.352;23.808;2023-07-31T00:32:10;94432.22;;;20.38;92.04
62978;BME280;49073;42.352;23.808;2023-07-31T00:35:10;94430.84;;;20.29;92.03
62978;BME280;49073;42.352;23.808;2023-07-31T00:38:11;94423.81;;;20.32;91.19
62978;BME280;49073;42.352;23.808;2023-07-31T00:41:11;94413.00;;;20.48;93.72
62978;BME280;49073;42.352;23.808;2023-07-31T00:44:12;94407.41;;;20.56;93.16
62978;BME280;49073;42.352;23.808;2023-07-31T00:47:12;94408.16;;;20.56;91.69
62978;BME280;49073;42.352;23.808;2023-07-31T00:50:13;94407.41;;;20.72;91.36
62978;BME280;49073;42.352;23.808;2023-07-31T00:53:15;94389.97;;;20.73;91.16
62978;BME280;49073;42.352;23.808;2023-07-31T00:56:17;94385.41;;;20.70;90.67
62978;BME280;49073;42.352;23.808;2023-07-31T00:59:19;94371.28;;;20.62;89.49
62978;BME280;49073;42.352;23.808;2023-07-31T01:02:20;94366.63;;;20.63;92.07
62978;BME280;49073;42.352;23.808;2023-07-31T01:05:27;94351.72;;;20.71;92.21
62978;BME280;49073;42.352;23.808;2023-07-31T01:08:35;94342.81;;;20.71;91.79
62978;BME280;49073;42.352;23.808;2023-07-31T01:11:50;94340.22;;;20.67;92.45
62978;BME280;49073;42.352;23.808;2023-07-31T01:15:03;94332.44;;;20.69;91.29
62978;BME280;49073;42.352;23.808;2023-07-31T01:18:05;94321.09;;;20.58;91.81
62978;BME280;49073;42.352;23.808;2023-07-31T01:28:27;94290.00;;;20.79;90.80
62978;BME280;49073;42.352;23.808;2023-07-31T01:31:30;94289.94;;;20.83;91.71
62978;BME280;49073;42.352;23.808;2023-07-31T01:34:32;94289.28;;;20.78;91.47
62978;BME280;49073;42.352;23.808;2023-07-31T01:37:33;94277.75;;;20.74;91.05
62978;BME280;49073;42.352;23.808;2023-07-31T01:40:34;94287.91;;;20.70;89.49
62978;BME280;49073;42.352;23.808;2023-07-31T01:43:35;94294.56;;;20.53;90.41
62978;BME280;49073;42.352;23.808;2023-07-31T01:46:35;94285.63;;;20.39;90.71
62978;BME280;49073;42.352;23.808;2023-07-31T01:49:36;94280.41;;;20.32;91.62
62978;BME280;49073;42.352;23.808;2023-07-31T01:52:37;94277.72;;;20.32;91.83
62978;BME280;49073;42.352;23.808;2023-07-31T01:55:38;94269.66;;;20.28;91.55
62978;BME280;49073;42.352;23.808;2023-07-31T01:58:38;94272.03;;;20.26;92.00
62978;BME280;49073;42.352;23.808;2023-07-31T02:01:39;94267.72;;;20.29;91.84
62978;BME280;49073;42.352;23.808;2023-07-31T02:04:40;94267.81;;;20.25;91.42
62978;BME280;49073;42.352;23.808;2023-07-31T02:07:41;94267.44;;;20.10;92.54
62978;BME280;49073;42.352;23.808;2023-07-31T02:10:41;94262.53;;;19.88;93.33
62978;BME280;49073;42.352;23.808;2023-07-31T02:13:42;94276.66;;;19.80;94.25
62978;BME280;49073;42.352;23.808;2023-07-31T02:16:43;94273.94;;;19.80;94.89
62978;BME280;49073;42.352;23.808;2023-07-31T02:19:44;94276.56;;;19.83;95.98
62978;BME280;49073;42.352;23.808;2023-07-31T02:22:44;94267.19;;;19.88;97.61
62978;BME280;49073;42.352;23.808;2023-07-31T02:25:45;94266.19;;;19.98;97.32
62978;BME280;49073;42.352;23.808;2023-07-31T02:28:46;94266.41;;;19.71;97.64
62978;BME280;49073;42.352;23.808;2023-07-31T02:31:46;94277.00;;;19.82;98.61
62978;BME280;49073;42.352;23.808;2023-07-31T02:34:47;94275.56;;;19.94;97.34
62978;BME280;49073;42.352;23.808;2023-07-31T02:37:47;94274.63;;;20.00;97.49
62978;BME280;49073;42.352;23.808;2023-07-31T02:40:48;94280.56;;;19.95;97.13
62978;BME280;49073;42.352;23.808;2023-07-31T02:43:48;94286.72;;;19.96;95.95
62978;BME280;49073;42.352;23.808;2023-07-31T02:46:49;94294.22;;;20.04;92.32
62978;BME280;49073;42.352;23.808;2023-07-31T02:49:49;94301.69;;;20.00;93.00
62978;BME280;49073;42.352;23.808;2023-07-31T02:52:50;94317.53;;;19.82;92.98
62978;BME280;49073;42.352;23.808;2023-07-31T02:55:50;94312.53;;;19.63;92.32
62978;BME280;49073;42.352;23.808;2023-07-31T02:58:51;94313.31;;;19.81;93.18
62978;BME280;49073;42.352;23.808;2023-07-31T03:01:51;94315.34;;;19.76;93.32
62978;BME280;49073;42.352;23.808;2023-07-31T03:04:52;94329.63;;;19.77;92.87
62978;BME280;49073;42.352;23.808;2023-07-31T03:07:52;94324.66;;;19.92;94.41
62978;BME280;49073;42.352;23.808;2023-07-31T03:10:53;94319.56;;;19.77;93.96
62978;BME280;49073;42.352;23.808;2023-07-31T03:13:54;94315.56;;;19.49;94.98
62978;BME280;49073;42.352;23.808;2023-07-31T03:16:54;94327.31;;;19.59;93.81
62978;BME280;49073;42.352;23.808;2023-07-31T03:19:55;94329.09;;;19.66;92.50
62978;BME280;49073;42.352;23.808;2023-07-31T03:22:55;94338.41;;;19.65;91.65
62978;BME280;49073;42.352;23.808;2023-07-31T03:26:00;94338.22;;;19.72;92.20
62978;BME280;49073;42.352;23.808;2023-07-31T03:29:01;94344.88;;;19.67;92.74
62978;BME280;49073;42.352;23.808;2023-07-31T03:32:02;94339.91;;;19.66;93.34
62978;BME280;49073;42.352;23.808;2023-07-31T03:35:04;94344.31;;;19.76;92.39
62978;BME280;49073;42.352;23.808;2023-07-31T03:38:05;94339.13;;;19.65;91.69
62978;BME280;49073;42.352;23.808;2023-07-31T03:41:06;94341.31;;;19.54;91.61
62978;BME280;49073;42.352;23.808;2023-07-31T03:44:07;94345.88;;;19.57;93.36
62978;BME280;49073;42.352;23.808;2023-07-31T03:47:08;94350.03;;;19.61;94.43
62978;BME280;49073;42.352;23.808;2023-07-31T03:50:08;94353.50;;;19.62;94.61
62978;BME280;49073;42.352;23.808;2023-07-31T03:53:09;94350.78;;;19.62;95.63
62978;BME280;49073;42.352;23.808;2023-07-31T03:56:10;94344.31;;;19.76;93.59
62978;BME280;49073;42.352;23.808;2023-07-31T03:59:11;94350.63;;;19.69;93.85
62978;BME280;49073;42.352;23.808;2023-07-31T04:02:11;94357.81;;;19.59;93.83
62978;BME280;49073;42.352;23.808;2023-07-31T04:05:14;94347.06;;;19.56;94.75
62978;BME280;49073;42.352;23.808;2023-07-31T04:08:14;94360.19;;;19.57;94.24
62978;BME280;49073;42.352;23.808;2023-07-31T04:11:15;94355.78;;;19.63;93.76
62978;BME280;49073;42.352;23.808;2023-07-31T04:14:16;94347.50;;;19.54;94.50
62978;BME280;49073;42.352;23.808;2023-07-31T04:17:19;94346.72;;;19.54;94.42
62978;BME280;49073;42.352;23.808;2023-07-31T04:20:19;94352.34;;;19.43;94.52
62978;BME280;49073;42.352;23.808;2023-07-31T04:23:20;94348.47;;;19.44;95.53
62978;BME280;49073;42.352;23.808;2023-07-31T04:26:21;94341.31;;;19.54;95.72
62978;BME280;49073;42.352;23.808;2023-07-31T04:29:21;94340.91;;;19.55;96.19
62978;BME280;49073;42.352;23.808;2023-07-31T04:32:23;94357.44;;;19.77;97.29
62978;BME280;49073;42.352;23.808;2023-07-31T04:35:24;94350.19;;;19.91;97.14
62978;BME280;49073;42.352;23.808;2023-07-31T04:38:24;94357.28;;;20.01;95.94
62978;BME280;49073;42.352;23.808;2023-07-31T04:41:25;94358.97;;;20.12;95.68
62978;BME280;49073;42.352;23.808;2023-07-31T04:44:26;94352.16;;;20.07;94.45
62978;BME280;49073;42.352;23.808;2023-07-31T04:47:26;94352.03;;;20.11;94.43
62978;BME280;49073;42.352;23.808;2023-07-31T04:50:27;94353.91;;;20.14;93.18
62978;BME280;49073;42.352;23.808;2023-07-31T04:53:27;94358.38;;;20.20;92.05
62978;BME280;49073;42.352;23.808;2023-07-31T04:56:28;94359.13;;;20.21;93.35
62978;BME280;49073;42.352;23.808;2023-07-31T04:59:29;94361.84;;;20.21;92.97
62978;BME280;49073;42.352;23.808;2023-07-31T05:02:29;94360.47;;;20.29;91.67
62978;BME280;49073;42.352;23.808;2023-07-31T05:05:30;94354.16;;;20.19;93.40
62978;BME280;49073;42.352;23.808;2023-07-31T05:08:31;94363.28;;;20.26;93.61
62978;BME280;49073;42.352;23.808;2023-07-31T05:11:31;94372.34;;;20.35;93.93
62978;BME280;49073;42.352;23.808;2023-07-31T05:14:32;94368.84;;;20.35;92.64
62978;BME280;49073;42.352;23.808;2023-07-31T05:17:32;94368.34;;;20.40;92.01
62978;BME280;49073;42.352;23.808;2023-07-31T05:20:33;94369.19;;;20.37;91.98
62978;BME280;49073;42.352;23.808;2023-07-31T05:23:33;94369.88;;;20.41;91.73
62978;BME280;49073;42.352;23.808;2023-07-31T05:26:34;94369.00;;;20.44;91.56
62978;BME280;49073;42.352;23.808;2023-07-31T05:29:34;94374.44;;;20.44;93.20
62978;BME280;49073;42.352;23.808;2023-07-31T05:32:35;94376.09;;;20.55;92.44
62978;BME280;49073;42.352;23.808;2023-07-31T05:35:35;94375.09;;;20.65;91.57
62978;BME280;49073;42.352;23.808;2023-07-31T05:38:37;94365.66;;;20.70;92.37
62978;BME280;49073;42.352;23.808;2023-07-31T05:41:37;94369.03;;;20.74;91.24
62978;BME280;49073;42.352;23.808;2023-07-31T05:44:39;94365.84;;;20.79;92.22
62978;BME280;49073;42.352;23.808;2023-07-31T05:47:40;94359.81;;;20.88;91.63
62978;BME280;49073;42.352;23.808;2023-07-31T05:50:40;94362.59;;;20.84;90.55
62978;BME280;49073;42.352;23.808;2023-07-31T05:53:41;94363.28;;;20.88;91.20
62978;BME280;49073;42.352;23.808;2023-07-31T05:56:42;94357.84;;;20.88;90.94
62978;BME280;49073;42.352;23.808;2023-07-31T05:59:42;94360.41;;;21.08;90.29
62978;BME280;49073;42.352;23.808;2023-07-31T06:02:43;94358.03;;;21.11;87.79
62978;BME280;49073;42.352;23.808;2023-07-31T06:05:43;94357.75;;;21.21;88.19
62978;BME280;49073;42.352;23.808;2023-07-31T06:08:44;94349.31;;;21.32;87.78
62978;BME280;49073;42.352;23.808;2023-07-31T06:11:44;94348.66;;;21.41;85.31
62978;BME280;49073;42.352;23.808;2023-07-31T06:14:45;94359.06;;;21.30;85.60
62978;BME280;49073;42.352;23.808;2023-07-31T06:17:45;94353.09;;;21.35;86.50
62978;BME280;49073;42.352;23.808;2023-07-31T06:20:46;94360.94;;;21.46;87.99
62978;BME280;49073;42.352;23.808;2023-07-31T06:23:47;94362.22;;;21.54;87.84
62978;BME280;49073;42.352;23.808;2023-07-31T06:26:48;94362.16;;;21.71;88.57
62978;BME280;49073;42.352;23.808;2023-07-31T06:29:48;94361.84;;;21.82;86.95
62978;BME280;49073;42.352;23.808;2023-07-31T06:32:49;94360.66;;;21.96;85.81
62978;BME280;49073;42.352;23.808;2023-07-31T06:35:52;94356.50;;;22.04;84.10
62978;BME280;49073;42.352;23.808;2023-07-31T06:38:53;94358.25;;;21.98;80.33
62978;BME280;49073;42.352;23.808;2023-07-31T06:41:54;94359.09;;;22.07;80.77
62978;BME280;49073;42.352;23.808;2023-07-31T06:44:54;94359.00;;;22.11;79.98
62978;BME280;49073;42.352;23.808;2023-07-31T06:47:55;94368.66;;;21.99;80.03
62978;BME280;49073;42.352;23.808;2023-07-31T06:50:55;94368.88;;;21.92;79.98
62978;BME280;49073;42.352;23.808;2023-07-31T06:53:56;94371.72;;;21.88;81.18
62978;BME280;49073;42.352;23.808;2023-07-31T06:56:56;94373.66;;;21.75;79.33
62978;BME280;49073;42.352;23.808;2023-07-31T06:59:57;94375.50;;;21.78;79.87
62978;BME280;49073;42.352;23.808;2023-07-31T07:02:57;94365.97;;;21.86;80.00
62978;BME280;49073;42.352;23.808;2023-07-31T07:05:58;94366.59;;;22.03;80.52
62978;BME280;49073;42.352;23.808;2023-07-31T07:08:58;94365.06;;;22.28;81.85
62978;BME280;49073;42.352;23.808;2023-07-31T07:11:59;94361.28;;;22.13;76.56
62978;BME280;49073;42.352;23.808;2023-07-31T07:15:00;94362.81;;;22.14;75.19
62978;BME280;49073;42.352;23.808;2023-07-31T07:18:00;94357.56;;;22.06;75.41
62978;BME280;49073;42.352;23.808;2023-07-31T07:21:01;94359.78;;;22.12;76.25
62978;BME280;49073;42.352;23.808;2023-07-31T07:24:03;94363.44;;;22.18;76.68
62978;BME280;49073;42.352;23.808;2023-07-31T07:27:03;94361.38;;;22.22;75.99
62978;BME280;49073;42.352;23.808;2023-07-31T07:30:04;94359.81;;;22.34;74.34
62978;BME280;49073;42.352;23.808;2023-07-31T07:33:06;94367.72;;;22.54;74.15
62978;BME280;49073;42.352;23.808;2023-07-31T07:36:06;94365.13;;;22.86;73.86
62978;BME280;49073;42.352;23.808;2023-07-31T07:39:10;94373.09;;;23.02;68.55
62978;BME280;49073;42.352;23.808;2023-07-31T07:42:11;94352.00;;;23.06;68.80
62978;BME280;49073;42.352;23.808;2023-07-31T07:45:12;94366.00;;;23.05;69.41
62978;BME280;49073;42.352;23.808;2023-07-31T07:48:13;94351.84;;;22.88;69.46
62978;BME280;49073;42.352;23.808;2023-07-31T07:51:13;94350.91;;;23.04;70.24
62978;BME280;49073;42.352;23.808;2023-07-31T07:54:14;94353.88;;;23.19;69.76
62978;BME280;49073;42.352;23.808;2023-07-31T07:57:15;94360.03;;;23.32;69.64
62978;BME280;49073;42.352;23.808;2023-07-31T08:00:16;94365.53;;;23.51;67.73
62978;BME280;49073;42.352;23.808;2023-07-31T08:03:18;94356.50;;;23.54;67.28
62978;BME280;49073;42.352;23.808;2023-07-31T08:06:18;94353.47;;;23.52;65.67
62978;BME280;49073;42.352;23.808;2023-07-31T08:09:19;94354.47;;;23.67;65.84
62978;BME280;49073;42.352;23.808;2023-07-31T08:12:19;94356.28;;;23.71;63.89
62978;BME280;49073;42.352;23.808;2023-07-31T08:15:20;94359.94;;;23.77;65.07
62978;BME280;49073;42.352;23.808;2023-07-31T08:18:21;94347.75;;;23.91;66.22
62978;BME280;49073;42.352;23.808;2023-07-31T08:21:22;94361.66;;;23.93;62.93
62978;BME280;49073;42.352;23.808;2023-07-31T08:24:23;94362.72;;;23.95;63.37
62978;BME280;49073;42.352;23.808;2023-07-31T08:27:23;94355.16;;;24.00;62.86
62978;BME280;49073;42.352;23.808;2023-07-31T08:30:24;94364.47;;;23.80;64.30
62978;BME280;49073;42.352;23.808;2023-07-31T08:33:24;94362.19;;;23.78;63.92
62978;BME280;49073;42.352;23.808;2023-07-31T08:36:25;94353.28;;;23.78;63.79
62978;BME280;49073;42.352;23.808;2023-07-31T08:39:26;94356.47;;;23.86;62.61
62978;BME280;49073;42.352;23.808;2023-07-31T08:42:26;94358.31;;;23.89;61.46
62978;BME280;49073;42.352;23.808;2023-07-31T08:45:27;94365.00;;;23.97;61.10
62978;BME280;49073;42.352;23.808;2023-07-31T08:48:28;94371.84;;;24.02;59.81
62978;BME280;49073;42.352;23.808;2023-07-31T08:51:29;94368.41;;;24.10;59.99
62978;BME280;49073;42.352;23.808;2023-07-31T08:54:30;94366.00;;;24.22;60.91
62978;BME280;49073;42.352;23.808;2023-07-31T08:57:35;94369.63;;;24.19;58.73
62978;BME280;49073;42.352;23.808;2023-07-31T09:00:36;94372.97;;;24.23;61.80
62978;BME280;49073;42.352;23.808;2023-07-31T09:03:39;94376.88;;;24.22;56.81
62978;BME280;49073;42.352;23.808;2023-07-31T09:06:40;94375.66;;;24.14;57.56
62978;BME280;49073;42.352;23.808;2023-07-31T09:09:42;94381.59;;;24.21;59.72
62978;BME280;49073;42.352;23.808;2023-07-31T09:12:43;94386.38;;;24.08;57.31
62978;BME280;49073;42.352;23.808;2023-07-31T09:15:45;94373.59;;;23.95;57.01
62978;BME280;49073;42.352;23.808;2023-07-31T09:18:56;94377.41;;;23.98;58.53
62978;BME280;49073;42.352;23.808;2023-07-31T09:21:57;94381.53;;;24.12;57.62
62978;BME280;49073;42.352;23.808;2023-07-31T09:25:13;94372.09;;;24.45;56.91
62978;BME280;49073;42.352;23.808;2023-07-31T09:28:14;94369.41;;;24.73;52.86
62978;BME280;49073;42.352;23.808;2023-07-31T09:31:15;94357.91;;;24.78;51.98
62978;BME280;49073;42.352;23.808;2023-07-31T09:34:16;94351.25;;;25.07;54.47
62978;BME280;49073;42.352;23.808;2023-07-31T09:37:16;94349.84;;;25.21;54.38
62978;BME280;49073;42.352;23.808;2023-07-31T09:40:31;94341.25;;;25.13;51.34
62978;BME280;49073;42.352;23.808;2023-07-31T09:43:32;94339.44;;;24.91;50.63
62978;BME280;49073;42.352;23.808;2023-07-31T09:46:37;94337.88;;;25.27;53.35
62978;BME280;49073;42.352;23.808;2023-07-31T09:49:38;94336.16;;;25.58;48.92
62978;BME280;49073;42.352;23.808;2023-07-31T09:52:39;94337.84;;;25.37;47.75
62978;BME280;49073;42.352;23.808;2023-07-31T09:55:41;94336.69;;;25.19;49.88
62978;BME280;49073;42.352;23.808;2023-07-31T09:58:42;94336.50;;;25.23;49.05
62978;BME280;49073;42.352;23.808;2023-07-31T10:01:45;94333.59;;;25.36;47.09
62978;BME280;49073;42.352;23.808;2023-07-31T10:04:49;94341.66;;;25.21;49.91
62978;BME280;49073;42.352;23.808;2023-07-31T10:07:59;94329.34;;;25.53;47.27
62978;BME280;49073;42.352;23.808;2023-07-31T10:11:01;94336.59;;;25.56;48.44
62978;BME280;49073;42.352;23.808;2023-07-31T10:14:03;94336.31;;;25.45;47.57
62978;BME280;49073;42.352;23.808;2023-07-31T10:17:05;94335.13;;;25.37;48.04
62978;BME280;49073;42.352;23.808;2023-07-31T10:20:07;94338.16;;;25.39;48.63
62978;BME280;49073;42.352;23.808;2023-07-31T10:23:08;94328.28;;;25.51;48.79
62978;BME280;49073;42.352;23.808;2023-07-31T10:26:10;94331.72;;;25.61;45.79
62978;BME280;49073;42.352;23.808;2023-07-31T10:29:11;94325.56;;;25.51;44.97
62978;BME280;49073;42.352;23.808;2023-07-31T10:32:14;94332.84;;;25.54;45.67
62978;BME280;49073;42.352;23.808;2023-07-31T10:35:18;94323.53;;;25.70;45.03
62978;BME280;49073;42.352;23.808;2023-07-31T10:38:18;94317.94;;;25.64;46.49
62978;BME280;49073;42.352;23.808;2023-07-31T10:41:19;94319.41;;;25.75;45.63
62978;BME280;49073;42.352;23.808;2023-07-31T10:44:20;94312.06;;;26.24;45.94
62978;BME280;49073;42.352;23.808;2023-07-31T10:47:21;94306.94;;;26.56;41.43
62978;BME280;49073;42.352;23.808;2023-07-31T10:50:22;94306.78;;;26.75;41.24
62978;BME280;49073;42.352;23.808;2023-07-31T10:53:26;94303.84;;;26.88;42.77
62978;BME280;49073;42.352;23.808;2023-07-31T10:56:27;94305.81;;;27.02;41.31
62978;BME280;49073;42.352;23.808;2023-07-31T10:59:37;94304.44;;;26.67;43.11
62978;BME280;49073;42.352;23.808;2023-07-31T11:02:37;94296.47;;;26.94;48.93
62978;BME280;49073;42.352;23.808;2023-07-31T11:09:00;94292.78;;;26.42;43.28
62978;BME280;49073;42.352;23.808;2023-07-31T11:12:00;94296.03;;;26.56;45.19
62978;BME280;49073;42.352;23.808;2023-07-31T11:15:01;94286.84;;;26.44;44.74
62978;BME280;49073;42.352;23.808;2023-07-31T11:18:02;94282.78;;;26.39;45.04
62978;BME280;49073;42.352;23.808;2023-07-31T11:21:19;94285.44;;;26.49;47.11
62978;BME280;49073;42.352;23.808;2023-07-31T11:24:20;94286.81;;;26.68;43.78
62978;BME280;49073;42.352;23.808;2023-07-31T11:27:21;94292.72;;;26.91;43.01
62978;BME280;49073;42.352;23.808;2023-07-31T11:30:22;94281.81;;;26.67;43.07
62978;BME280;49073;42.352;23.808;2023-07-31T11:33:22;94285.38;;;26.97;42.17
62978;BME280;49073;42.352;23.808;2023-07-31T11:36:23;94271.38;;;27.40;42.45
62978;BME280;49073;42.352;23.808;2023-07-31T11:39:23;94279.06;;;27.72;39.53
62978;BME280;49073;42.352;23.808;2023-07-31T11:42:24;94261.34;;;27.67;39.63
62978;BME280;49073;42.352;23.808;2023-07-31T11:45:27;94267.97;;;27.45;41.67
62978;BME280;49073;42.352;23.808;2023-07-31T11:48:33;94278.72;;;27.49;42.71
62978;BME280;49073;42.352;23.808;2023-07-31T11:51:35;94257.31;;;27.83;41.95
62978;BME280;49073;42.352;23.808;2023-07-31T11:54:37;94260.16;;;27.89;41.57
62978;BME280;49073;42.352;23.808;2023-07-31T11:57:40;94258.88;;;27.19;42.36
62978;BME280;49073;42.352;23.808;2023-07-31T12:00:42;94251.56;;;27.45;43.52
62978;BME280;49073;42.352;23.808;2023-07-31T12:03:42;94264.50;;;27.30;43.59
62978;BME280;49073;42.352;23.808;2023-07-31T12:06:44;94261.03;;;26.99;43.49
62978;BME280;49073;42.352;23.808;2023-07-31T12:09:56;94266.06;;;26.62;44.52
62978;BME280;49073;42.352;23.808;2023-07-31T12:13:05;94250.69;;;26.64;45.08
62978;BME280;49073;42.352;23.808;2023-07-31T12:16:06;94259.53;;;27.13;44.28
62978;BME280;49073;42.352;23.808;2023-07-31T12:19:12;94251.41;;;27.19;43.02
62978;BME280;49073;42.352;23.808;2023-07-31T12:22:16;94251.94;;;26.78;43.38
62978;BME280;49073;42.352;23.808;2023-07-31T12:25:17;94250.25;;;26.66;44.31
62978;BME280;49073;42.352;23.808;2023-07-31T12:28:22;94243.94;;;26.60;42.95
62978;BME280;49073;42.352;23.808;2023-07-31T12:31:23;94240.56;;;27.10;42.77
62978;BME280;49073;42.352;23.808;2023-07-31T12:34:27;94238.84;;;27.27;41.49
62978;BME280;49073;42.352;23.808;2023-07-31T12:37:28;94238.28;;;27.08;43.21
62978;BME280;49073;42.352;23.808;2023-07-31T12:40:29;94234.72;;;27.17;42.34
62978;BME280;49073;42.352;23.808;2023-07-31T12:43:30;94230.28;;;27.05;42.17
62978;BME280;49073;42.352;23.808;2023-07-31T12:46:30;94229.84;;;26.91;43.11
62978;BME280;49073;42.352;23.808;2023-07-31T12:49:31;94231.53;;;26.49;43.68
62978;BME280;49073;42.352;23.808;2023-07-31T12:52:31;94219.91;;;26.94;42.64
62978;BME280;49073;42.352;23.808;2023-07-31T12:55:33;94207.13;;;27.36;40.20
62978;BME280;49073;42.352;23.808;2023-07-31T12:58:37;94205.19;;;27.21;39.80
62978;BME280;49073;42.352;23.808;2023-07-31T13:01:37;94206.84;;;27.34;39.38
62978;BME280;49073;42.352;23.808;2023-07-31T13:04:38;94192.69;;;27.35;39.87
62978;BME280;49073;42.352;23.808;2023-07-31T13:07:41;94199.28;;;27.43;40.30
62978;BME280;49073;42.352;23.808;2023-07-31T13:10:41;94192.38;;;27.84;40.67
62978;BME280;49073;42.352;23.808;2023-07-31T13:13:42;94200.03;;;28.00;39.95
62978;BME280;49073;42.352;23.808;2023-07-31T13:16:43;94207.09;;;28.07;39.81
62978;BME280;49073;42.352;23.808;2023-07-31T13:19:43;94203.75;;;28.18;40.11
62978;BME280;49073;42.352;23.808;2023-07-31T13:22:44;94201.88;;;28.30;39.29
62978;BME280;49073;42.352;23.808;2023-07-31T13:25:44;94197.78;;;28.20;39.62
62978;BME280;49073;42.352;23.808;2023-07-31T13:28:45;94192.69;;;28.33;38.35
62978;BME280;49073;42.352;23.808;2023-07-31T13:31:46;94191.63;;;28.51;41.42
62978;BME280;49073;42.352;23.808;2023-07-31T13:34:47;94197.75;;;28.67;38.43
62978;BME280;49073;42.352;23.808;2023-07-31T13:37:48;94189.69;;;28.57;39.86
62978;BME280;49073;42.352;23.808;2023-07-31T13:40:48;94187.03;;;28.37;38.04
62978;BME280;49073;42.352;23.808;2023-07-31T13:43:50;94187.50;;;28.35;38.13
62978;BME280;49073;42.352;23.808;2023-07-31T13:46:51;94194.84;;;28.50;38.69
62978;BME280;49073;42.352;23.808;2023-07-31T13:49:51;94195.59;;;28.77;38.18
62978;BME280;49073;42.352;23.808;2023-07-31T13:52:52;94198.16;;;28.80;37.31
62978;BME280;49073;42.352;23.808;2023-07-31T13:55:53;94196.06;;;28.96;39.09
62978;BME280;49073;42.352;23.808;2023-07-31T13:58:54;94198.19;;;28.86;38.83
62978;BME280;49073;42.352;23.808;2023-07-31T14:01:54;94200.19;;;28.33;38.78
62978;BME280;49073;42.352;23.808;2023-07-31T14:04:55;94199.41;;;28.32;39.03
62978;BME280;49073;42.352;23.808;2023-07-31T14:07:56;94201.97;;;28.36;38.98
62978;BME280;49073;42.352;23.808;2023-07-31T14:10:57;94200.81;;;28.22;39.45
62978;BME280;49073;42.352;23.808;2023-07-31T14:13:58;94205.59;;;28.06;40.95
62978;BME280;49073;42.352;23.808;2023-07-31T14:16:58;94200.22;;;27.76;40.02
62978;BME280;49073;42.352;23.808;2023-07-31T14:19:58;94197.44;;;27.70;41.39
62978;BME280;49073;42.352;23.808;2023-07-31T14:22:59;94200.09;;;27.85;40.66
62978;BME280;49073;42.352;23.808;2023-07-31T14:26:01;94203.19;;;27.72;41.52
62978;BME280;49073;42.352;23.808;2023-07-31T14:29:02;94211.72;;;27.44;41.89
62978;BME280;49073;42.352;23.808;2023-07-31T14:32:02;94209.34;;;27.17;42.67
62978;BME280;49073;42.352;23.808;2023-07-31T14:35:03;94207.94;;;27.06;43.26
62978;BME280;49073;42.352;23.808;2023-07-31T14:38:04;94211.59;;;27.03;43.62
62978;BME280;49073;42.352;23.808;2023-07-31T14:41:04;94215.59;;;26.87;43.67
62978;BME280;49073;42.352;23.808;2023-07-31T14:44:05;94227.38;;;26.93;45.13
62978;BME280;49073;42.352;23.808;2023-07-31T14:47:05;94221.03;;;27.02;43.04
62978;BME280;49073;42.352;23.808;2023-07-31T14:50:06;94219.41;;;27.25;43.32
62978;BME280;49073;42.352;23.808;2023-07-31T14:53:08;94222.06;;;27.20;42.44
62978;BME280;49073;42.352;23.808;2023-07-31T14:56:08;94232.31;;;27.40;42.83
62978;BME280;49073;42.352;23.808;2023-07-31T14:59:09;94223.38;;;27.24;43.24
62978;BME280;49073;42.352;23.808;2023-07-31T15:02:10;94229.91;;;27.12;44.05
62978;BME280;49073;42.352;23.808;2023-07-31T15:05:10;94230.75;;;27.03;43.08
62978;BME280;49073;42.352;23.808;2023-07-31T15:08:11;94217.63;;;27.22;43.20
62978;BME280;49073;42.352;23.808;2023-07-31T15:11:11;94216.22;;;27.27;42.93
62978;BME280;49073;42.352;23.808;2023-07-31T15:14:12;94220.63;;;27.39;43.77
62978;BME280;49073;42.352;23.808;2023-07-31T15:17:13;94216.28;;;27.33;42.64
62978;BME280;49073;42.352;23.808;2023-07-31T15:20:13;94216.78;;;27.31;43.38
62978;BME280;49073;42.352;23.808;2023-07-31T15:23:14;94213.25;;;27.30;43.43
62978;BME280;49073;42.352;23.808;2023-07-31T15:26:14;94212.38;;;27.19;43.60
62978;BME280;49073;42.352;23.808;2023-07-31T15:29:15;94201.59;;;27.30;43.68
62978;BME280;49073;42.352;23.808;2023-07-31T15:32:19;94204.50;;;27.26;43.74
62978;BME280;49073;42.352;23.808;2023-07-31T15:35:21;94202.53;;;27.27;43.69
62978;BME280;49073;42.352;23.808;2023-07-31T15:38:22;94208.13;;;27.03;43.69
62978;BME280;49073;42.352;23.808;2023-07-31T15:41:23;94204.56;;;26.96;43.50
62978;BME280;49073;42.352;23.808;2023-07-31T15:44:24;94197.97;;;26.88;43.26
62978;BME280;49073;42.352;23.808;2023-07-31T15:47:24;94210.94;;;26.78;44.93
62978;BME280;49073;42.352;23.808;2023-07-31T15:50:25;94201.63;;;26.70;45.55
62978;BME280;49073;42.352;23.808;2023-07-31T15:53:25;94208.59;;;26.71;45.50
62978;BME280;49073;42.352;23.808;2023-07-31T15:56:28;94208.03;;;26.67;45.45
62978;BME280;49073;42.352;23.808;2023-07-31T15:59:29;94211.78;;;26.54;46.31